Hovedside
METAR-TAF:

METAR-TAF

Lufthavner :

Oban, Skottland

breddegrad: 56-27-49N, lengdegrad: 5-24-00W, høyde over havet: 7 m

Gjeldene værobservasjon

Denne rapporten ble laget for 19 timer og 26 minutter siden, klokken 15:50 UTC
Vind 19 kt fra Vest-nordvest
Temperatur 9°C
Luftfuktighet 87%
Trykk 995 hPa
Sikt: 9000 m
Brutte skyer i en høyde av 1600 ft
regnbyger i nærheten

METAR: EGEO 061550Z 29019KT 9000 VCSH BKN016 09/07 Q0995

Tid: 11:16 (11:16 UTC)

Varsel

Denne rapporten ble laget for 21 timer og 18 minutter siden, klokken 13:58 UTC
Varsel gyldig fra 06. klokken 15 UTC til 06. klokken 17 UTC
Vind 14 kt fra Vest
Sikt 10 km eller mer
Spredte skyer i en høyde av 2000 ft
Midlertidig
fra 06. klokken 15 UTC til 06. klokken 17 UTC
Vind 15 kt fra Vest-nordvest med vindkast opp mot 25 kt
Sikt: 7000 m
Brutte skyer i en høyde av 1400 ft
regnbyger

TAF: EGEO 061358Z 0615/0617 28014KT 9999 SCT020 TEMPO 0615/0617 30015G25KT 7000 SHRA BKN014

Værobservasjoner og værvarsel for over 4000 flyplasser (METAR- og TAF-rapporter).

Tilgjengelige stasjoner er representert av de røde og gule prikkene på kartet.

Hold musepekeren over prikken for å se navnet på stasjonen.

Klikk så for å se værobservasjoner og -varsler.

For å forandre kartet kan du klikke på den grønne knappen med svart kryss for å zoome inn, på den grønne knappen med strek for å zoome ut, eller på de grønne pilene for å se tilstøtende kart.


METAR-TAF: